Time;durP1;ratioP1;P1;durP2;ratioP2;P2;SDS_P1;SDS_P2;PMS_P1;PMS_P2;Temp;Humidity;BMP_temperature;BMP_pressure;BME280_temperature;BME280_humidity;BME280_pressure;Samples;Min_cycle;Max_cycle;Signal;HPM_P1;HPM_P2
2022/08/31 00:04:11;;;;;;;;;;;;;;;28.67;35.47;99172.63;4455683;32;34172;-84
2022/08/31 00:06:38;;;;;;;;;;;;;;;28.46;36.28;99164.16;4462681;32;33887;-86
2022/08/31 00:09:06;;;;;;;;;;;;;;;28.39;35.95;99165.47;4463457;32;34555;-85
2022/08/31 00:11:35;;;;;;;;;;;;;;;28.42;36.47;99167.97;4467789;32;33741;-86
2022/08/31 00:14:05;;;;;;;;;;;;;;;28.72;35.81;99170.56;4467584;32;34559;-87
2022/08/31 00:16:40;;;;;;;;;;;;;;;28.87;35.53;99171.44;4466439;32;35164;-85
2022/08/31 00:19:07;;;;;;;;;;;;;;;28.82;35.67;99170.84;4467584;32;35340;-87
2022/08/31 00:21:34;;;;;;;;;;;;;;;29.00;35.48;99171.53;4453104;32;33445;-85
2022/08/31 00:24:02;;;;;;;;;;;;;;;28.76;35.76;99176.56;4467520;32;34573;-86
2022/08/31 00:26:29;;;;;;;;;;;;;;;28.74;35.64;99175.78;4467185;32;35255;-86
2022/08/31 00:28:56;;;;;;;;;;;;;;;28.94;35.28;99175.41;4466393;32;35300;-86
2022/08/31 00:31:24;;;;;;;;;;;;;;;28.77;35.58;99167.59;4467462;32;33136;-83
2022/08/31 00:33:55;;;;;;;;;;;;;;;28.72;35.62;99173.25;4467629;32;34372;-85
2022/08/31 00:36:23;;;;;;;;;;;;;;;28.80;35.71;99175.44;4467042;32;35228;-85
2022/08/31 00:38:51;;;;;;;;;;;;;;;28.85;35.68;99173.31;4467293;32;34344;-83
2022/08/31 00:41:19;;;;;;;;;;;;;;;28.99;35.37;99172.50;4467933;32;34221;-84
2022/08/31 00:43:47;;;;;;;;;;;;;;;29.04;35.15;99167.72;4467361;32;34347;-83
2022/08/31 00:46:23;;;;;;;;;;;;;;;29.02;35.27;99173.16;4466613;32;34100;-85
2022/08/31 00:48:55;;;;;;;;;;;;;;;28.93;35.47;99176.38;4467201;32;35059;-84
2022/08/31 00:51:22;;;;;;;;;;;;;;;28.94;35.50;99180.75;4452666;32;34302;-85
2022/08/31 00:53:50;;;;;;;;;;;;;;;28.95;35.47;99185.16;4453269;32;35071;-86
2022/08/31 00:56:17;;;;;;;;;;;;;;;29.01;35.43;99179.44;4452685;32;34853;-85
2022/08/31 00:58:45;;;;;;;;;;;;;;;28.99;35.51;99180.50;4467262;32;34555;-82
2022/08/31 01:01:20;;;;;;;;;;;;;;;28.88;35.83;99186.47;4467150;32;33434;-85
2022/08/31 01:03:48;;;;;;;;;;;;;;;28.92;35.82;99181.81;4467457;32;34022;-85
2022/08/31 01:06:16;;;;;;;;;;;;;;;28.75;36.09;99185.50;4465108;32;35103;-86
2022/08/31 01:08:44;;;;;;;;;;;;;;;28.80;35.88;99186.09;4457064;32;34623;-85
2022/08/31 01:11:11;;;;;;;;;;;;;;;28.94;35.70;99182.56;4464335;32;33719;-84
2022/08/31 01:13:39;;;;;;;;;;;;;;;28.88;35.77;99189.16;4453255;32;33824;-82
2022/08/31 01:16:07;;;;;;;;;;;;;;;28.74;35.95;99184.66;4466398;32;33867;-85
2022/08/31 01:18:35;;;;;;;;;;;;;;;28.78;35.87;99185.31;4453026;32;34428;-83
2022/08/31 01:21:02;;;;;;;;;;;;;;;28.84;35.68;99179.63;4453114;32;33959;-85
2022/08/31 01:23:34;;;;;;;;;;;;;;;28.80;35.62;99186.09;4467063;32;34409;-85
2022/08/31 01:26:02;;;;;;;;;;;;;;;28.77;35.63;99189.81;4441362;32;34539;-85
2022/08/31 01:28:29;;;;;;;;;;;;;;;28.70;35.65;99188.47;4446913;32;34260;-84
2022/08/31 01:30:58;;;;;;;;;;;;;;;28.68;35.73;99192.16;4466952;32;34441;-83
2022/08/31 01:33:26;;;;;;;;;;;;;;;28.57;35.76;99193.72;4473296;32;34310;-82
2022/08/31 01:35:53;;;;;;;;;;;;;;;28.34;35.97;99196.88;4466808;32;34844;-84
2022/08/31 01:38:20;;;;;;;;;;;;;;;28.49;35.54;99197.75;4467101;32;34274;-85
2022/08/31 01:40:49;;;;;;;;;;;;;;;28.62;35.21;99201.41;4467108;32;34340;-85
2022/08/31 01:43:16;;;;;;;;;;;;;;;28.59;35.18;99190.94;4452426;32;34150;-87
2022/08/31 01:45:44;;;;;;;;;;;;;;;28.53;35.22;99192.19;4466551;32;33994;-85
2022/08/31 01:48:11;;;;;;;;;;;;;;;28.66;34.85;99191.44;4467117;32;34833;-84
2022/08/31 01:50:39;;;;;;;;;;;;;;;28.65;34.66;99187.91;4467132;32;33203;-85
2022/08/31 01:53:06;;;;;;;;;;;;;;;28.53;34.71;99192.19;4467131;32;34080;-87
2022/08/31 01:55:33;;;;;;;;;;;;;;;28.48;34.85;99182.72;4458675;32;35215;-86
2022/08/31 01:58:01;;;;;;;;;;;;;;;28.41;34.96;99192.87;4451181;32;34392;-87
2022/08/31 02:00:30;;;;;;;;;;;;;;;28.45;34.72;99194.47;4437329;32;33288;-86
2022/08/31 02:02:59;;;;;;;;;;;;;;;28.61;34.27;99194.38;4450930;32;35141;-84
2022/08/31 02:05:27;;;;;;;;;;;;;;;28.51;34.48;99190.53;4451281;32;34510;-87
2022/08/31 02:07:55;;;;;;;;;;;;;;;28.46;34.56;99189.97;4451199;32;35604;-85
2022/08/31 02:10:22;;;;;;;;;;;;;;;28.20;35.12;99188.84;4451003;32;33456;-84
2022/08/31 02:12:49;;;;;;;;;;;;;;;28.24;34.89;99179.69;4458232;32;34359;-83
2022/08/31 02:15:17;;;;;;;;;;;;;;;28.17;34.96;99187.19;4466266;32;35198;-85
2022/08/31 02:17:45;;;;;;;;;;;;;;;28.30;34.49;99184.69;4452248;32;34470;-85
2022/08/31 02:20:19;;;;;;;;;;;;;;;28.24;34.55;99185.03;4466276;32;33620;-84
2022/08/31 02:22:47;;;;;;;;;;;;;;;28.12;34.69;99189.28;4458740;32;34755;-84
2022/08/31 02:25:15;;;;;;;;;;;;;;;28.26;34.42;99177.78;4450935;32;35045;-85
2022/08/31 02:27:42;;;;;;;;;;;;;;;28.25;34.36;99170.75;4450735;32;34370;-83
2022/08/31 02:30:11;;;;;;;;;;;;;;;28.18;34.34;99177.37;4450654;32;33462;-85
2022/08/31 02:32:40;;;;;;;;;;;;;;;28.14;34.40;99169.56;4442951;32;34039;-85
2022/08/31 02:35:08;;;;;;;;;;;;;;;28.09;34.35;99177.00;4466124;32;34118;-85
2022/08/31 02:37:35;;;;;;;;;;;;;;;27.98;34.55;99171.44;4465819;32;34459;-86
2022/08/31 02:40:06;;;;;;;;;;;;;;;28.01;34.50;99179.25;4452372;32;33727;-85
2022/08/31 02:42:37;;;;;;;;;;;;;;;27.74;35.04;99180.81;4459585;32;34965;-85
2022/08/31 02:45:20;;;;;;;;;;;;;;;27.68;35.25;99175.84;4451578;32;34397;-85
2022/08/31 02:47:47;;;;;;;;;;;;;;;27.61;35.13;99176.19;4453084;32;34530;-86
2022/08/31 02:50:15;;;;;;;;;;;;;;;27.59;35.00;99172.75;4452623;32;33745;-85
2022/08/31 02:52:44;;;;;;;;;;;;;;;27.68;34.89;99173.19;4458853;32;34288;-84
2022/08/31 02:55:11;;;;;;;;;;;;;;;27.74;34.65;99170.19;4454048;32;34114;-85
2022/08/31 02:57:38;;;;;;;;;;;;;;;27.83;34.49;99169.66;4454253;32;34108;-87
2022/08/31 03:00:06;;;;;;;;;;;;;;;27.77;34.57;99167.34;4468476;32;33110;-86
2022/08/31 03:02:34;;;;;;;;;;;;;;;27.70;34.60;99169.50;4462945;32;34176;-86
2022/08/31 03:05:02;;;;;;;;;;;;;;;27.52;34.83;99170.53;4452433;32;34418;-87
2022/08/31 03:07:31;;;;;;;;;;;;;;;27.60;34.78;99178.94;4452991;32;34003;-85
2022/08/31 03:10:01;;;;;;;;;;;;;;;27.56;34.85;99174.75;4452566;32;34200;-87
2022/08/31 03:12:28;;;;;;;;;;;;;;;27.64;34.65;99178.66;4456285;32;34777;-86
2022/08/31 03:14:56;;;;;;;;;;;;;;;27.48;34.96;99172.50;4468124;32;34324;-85
2022/08/31 03:17:23;;;;;;;;;;;;;;;27.60;34.86;99174.47;4468343;32;34365;-86
2022/08/31 03:19:50;;;;;;;;;;;;;;;27.48;35.28;99185.81;4468118;32;33642;-86
2022/08/31 03:22:17;;;;;;;;;;;;;;;27.93;34.49;99173.50;4439058;32;34320;-86
2022/08/31 03:24:47;;;;;;;;;;;;;;;27.75;34.57;99174.56;4452290;32;34557;-87
2022/08/31 03:27:14;;;;;;;;;;;;;;;27.46;34.96;99171.72;4452560;32;35221;-87
2022/08/31 03:29:43;;;;;;;;;;;;;;;27.54;34.72;99172.19;4452506;32;34344;-86
2022/08/31 03:32:11;;;;;;;;;;;;;;;27.50;34.62;99183.91;4465610;32;33489;-84
2022/08/31 03:34:40;;;;;;;;;;;;;;;27.38;34.83;99184.63;4454043;32;34226;-86
2022/08/31 03:37:07;;;;;;;;;;;;;;;27.44;34.83;99183.44;4467906;32;34293;-85
2022/08/31 03:39:34;;;;;;;;;;;;;;;27.44;34.88;99184.28;4468058;32;34097;-86
2022/08/31 03:42:02;;;;;;;;;;;;;;;27.42;34.96;99189.69;4455644;32;35043;-86
2022/08/31 03:44:31;;;;;;;;;;;;;;;27.58;34.61;99179.03;4452732;32;34781;-86
2022/08/31 03:46:59;;;;;;;;;;;;;;;27.33;34.96;99186.69;4452590;32;34510;-84
2022/08/31 03:49:26;;;;;;;;;;;;;;;27.49;34.74;99184.87;4452787;32;33891;-85
2022/08/31 03:51:55;;;;;;;;;;;;;;;27.41;34.81;99181.78;4453349;32;34952;-86
2022/08/31 03:54:23;;;;;;;;;;;;;;;27.51;34.60;99175.00;4452412;32;35367;-86
2022/08/31 03:56:50;;;;;;;;;;;;;;;27.32;34.93;99175.19;4437741;32;34250;-86
2022/08/31 03:59:19;;;;;;;;;;;;;;;27.30;35.00;99176.19;4452687;32;33356;-86
2022/08/31 04:01:54;;;;;;;;;;;;;;;27.30;35.06;99173.53;4462740;32;34140;-86
2022/08/31 04:04:41;;;;;;;;;;;;;;;27.27;35.28;99179.88;4467955;32;34505;-83
2022/08/31 04:07:11;;;;;;;;;;;;;;;27.30;35.04;99178.87;4467149;32;34928;-86
2022/08/31 04:09:42;;;;;;;;;;;;;;;27.31;35.16;99184.09;4452333;32;32672;-84
2022/08/31 04:12:11;;;;;;;;;;;;;;;27.30;35.16;99181.53;4452518;32;35091;-84
2022/08/31 04:14:41;;;;;;;;;;;;;;;27.36;35.04;99179.38;4452396;32;32264;-83
2022/08/31 04:17:11;;;;;;;;;;;;;;;27.32;35.03;99182.31;4452502;32;35300;-85
2022/08/31 04:19:40;;;;;;;;;;;;;;;27.38;34.93;99188.13;4452270;32;33599;-86
2022/08/31 04:22:11;;;;;;;;;;;;;;;27.22;35.23;99183.75;4452096;32;34156;-86
2022/08/31 04:24:40;;;;;;;;;;;;;;;27.08;35.53;99185.31;4452421;32;34567;-86
2022/08/31 04:27:07;;;;;;;;;;;;;;;27.23;35.42;99190.78;4452165;32;34540;-84
2022/08/31 04:29:34;;;;;;;;;;;;;;;27.31;35.40;99188.56;4467038;32;34315;-86
2022/08/31 04:32:02;;;;;;;;;;;;;;;27.25;35.52;99192.44;4467726;32;33941;-84
2022/08/31 04:34:29;;;;;;;;;;;;;;;27.47;35.38;99185.94;4441768;32;784616;-85
2022/08/31 04:36:56;;;;;;;;;;;;;;;27.60;35.23;99179.78;4452133;32;34014;-82
2022/08/31 04:39:24;;;;;;;;;;;;;;;27.56;35.25;99175.59;4452247;32;34392;-83
2022/08/31 04:41:53;;;;;;;;;;;;;;;27.59;35.23;99178.09;4451808;32;34254;-83
2022/08/31 04:44:20;;;;;;;;;;;;;;;27.57;35.25;99179.97;4452198;32;35132;-83
2022/08/31 04:46:50;;;;;;;;;;;;;;;27.72;35.24;99182.72;4467244;32;35159;-83
2022/08/31 04:49:17;;;;;;;;;;;;;;;28.17;34.77;99181.00;4467652;32;34446;-83
2022/08/31 04:51:45;;;;;;;;;;;;;;;28.03;34.32;99188.00;4467294;32;34276;-85
2022/08/31 04:54:12;;;;;;;;;;;;;;;27.98;33.99;99190.09;4467408;32;35184;-83
2022/08/31 04:56:42;;;;;;;;;;;;;;;28.76;33.22;99179.25;4453102;32;35261;-82
2022/08/31 04:59:11;;;;;;;;;;;;;;;28.84;32.73;99184.97;4452276;32;34253;-82
2022/08/31 05:01:43;;;;;;;;;;;;;;;28.67;32.90;99187.78;4451956;32;34122;-85
2022/08/31 05:04:13;;;;;;;;;;;;;;;29.34;32.14;99183.59;4438340;32;34598;-86
2022/08/31 05:06:42;;;;;;;;;;;;;;;29.23;31.90;99180.75;4465506;32;35148;-87
2022/08/31 05:09:11;;;;;;;;;;;;;;;29.95;30.88;99187.63;4467290;32;33400;-87
2022/08/31 05:11:40;;;;;;;;;;;;;;;29.43;31.91;99192.81;4467466;32;32912;-87
2022/08/31 05:14:08;;;;;;;;;;;;;;;29.98;30.08;99184.75;4467550;32;34144;-85
2022/08/31 05:16:36;;;;;;;;;;;;;;;29.89;30.79;99189.84;4453741;32;35143;-85
2022/08/31 05:19:03;;;;;;;;;;;;;;;28.53;32.45;99194.84;4451852;32;34455;-86
2022/08/31 05:21:32;;;;;;;;;;;;;;;29.66;30.78;99188.69;4451761;32;33562;-85
2022/08/31 05:24:10;;;;;;;;;;;;;;;28.79;31.46;99185.25;4451789;32;34036;-87
2022/08/31 05:26:39;;;;;;;;;;;;;;;28.60;32.34;99200.63;4452547;32;33857;-86
2022/08/31 05:29:08;;;;;;;;;;;;;;;27.98;33.62;99194.56;4437854;32;33628;-86
2022/08/31 05:31:36;;;;;;;;;;;;;;;28.45;32.40;99194.47;4451818;32;34333;-86
2022/08/31 05:34:04;;;;;;;;;;;;;;;26.94;34.95;99201.22;4451556;32;35130;-86
2022/08/31 05:36:32;;;;;;;;;;;;;;;27.97;33.77;99204.38;4452261;32;35066;-86
2022/08/31 05:38:59;;;;;;;;;;;;;;;28.75;31.91;99199.72;4451347;32;33413;-87
2022/08/31 05:41:28;;;;;;;;;;;;;;;28.18;33.03;99193.37;4451536;32;35207;-87
2022/08/31 05:43:55;;;;;;;;;;;;;;;27.50;34.24;99205.22;4437880;32;34382;-86
2022/08/31 05:46:22;;;;;;;;;;;;;;;28.09;33.30;99203.63;4451328;32;33680;-85
2022/08/31 05:48:50;;;;;;;;;;;;;;;27.16;35.20;99193.81;4451424;32;34642;-85
2022/08/31 05:51:17;;;;;;;;;;;;;;;26.60;36.03;99202.13;4451301;32;34084;-86
2022/08/31 05:53:45;;;;;;;;;;;;;;;27.25;34.98;99197.75;4452139;32;34014;-88
2022/08/31 05:56:19;;;;;;;;;;;;;;;26.93;35.40;99199.47;4436967;32;34017;-87
2022/08/31 05:58:47;;;;;;;;;;;;;;;26.80;36.15;99206.41;4451033;32;33622;-87
2022/08/31 06:01:18;;;;;;;;;;;;;;;26.28;37.80;99206.41;4459300;32;34320;-87
2022/08/31 06:03:47;;;;;;;;;;;;;;;26.34;37.70;99200.78;4466738;32;35187;-86
2022/08/31 06:06:14;;;;;;;;;;;;;;;26.27;38.57;99205.56;4465354;32;34339;-83
2022/08/31 06:08:42;;;;;;;;;;;;;;;26.91;37.48;99206.69;4466073;32;34331;-84
2022/08/31 06:11:16;;;;;;;;;;;;;;;27.20;36.88;99212.25;4437210;32;32692;-82
2022/08/31 06:13:49;;;;;;;;;;;;;;;26.91;38.06;99223.50;4451241;32;34267;-87
2022/08/31 06:16:17;;;;;;;;;;;;;;;26.85;38.04;99221.16;4436978;32;34340;-83
2022/08/31 06:18:49;;;;;;;;;;;;;;;26.64;37.98;99223.16;4449171;32;32050;-81
2022/08/31 06:21:19;;;;;;;;;;;;;;;26.93;38.02;99226.94;4452143;32;32739;-81
2022/08/31 06:23:48;;;;;;;;;;;;;;;26.44;38.54;99213.53;4438992;32;34244;-82
2022/08/31 06:26:17;;;;;;;;;;;;;;;26.65;38.28;99222.22;4439724;32;33771;-86
2022/08/31 06:28:47;;;;;;;;;;;;;;;27.83;36.95;99215.81;4453085;32;33467;-87
2022/08/31 06:31:27;;;;;;;;;;;;;;;28.22;35.96;99225.09;4439003;32;34934;-83
2022/08/31 06:33:55;;;;;;;;;;;;;;;27.46;36.85;99224.97;4452793;32;34314;-81
2022/08/31 06:36:26;;;;;;;;;;;;;;;28.33;35.63;99217.31;4439128;32;34090;-88
2022/08/31 06:38:55;;;;;;;;;;;;;;;27.69;35.89;99220.16;4452778;32;34447;-88
2022/08/31 06:41:25;;;;;;;;;;;;;;;27.86;35.48;99217.44;4438986;32;34174;-84
2022/08/31 06:43:53;;;;;;;;;;;;;;;26.88;37.54;99221.00;4452796;32;34192;-86
2022/08/31 06:46:22;;;;;;;;;;;;;;;27.18;37.22;99225.66;4438860;32;35549;-86
2022/08/31 06:48:54;;;;;;;;;;;;;;;26.71;37.50;99225.47;4438800;32;34297;-81
2022/08/31 06:51:21;;;;;;;;;;;;;;;27.68;35.62;99219.31;4438439;32;34910;-82
2022/08/31 06:53:49;;;;;;;;;;;;;;;27.91;34.77;99222.50;4452643;32;33996;-84
2022/08/31 06:56:19;;;;;;;;;;;;;;;26.72;36.12;99232.53;4452732;32;33956;-83
2022/08/31 06:58:50;;;;;;;;;;;;;;;27.92;34.41;99221.53;4445249;32;33052;-81
2022/08/31 07:01:22;;;;;;;;;;;;;;;28.16;33.93;99225.47;4453345;32;34221;-84
2022/08/31 07:04:04;;;;;;;;;;;;;;;26.91;36.06;99235.94;4467052;32;34281;-81
2022/08/31 07:06:34;;;;;;;;;;;;;;;27.38;35.35;99237.84;4461949;32;34163;-85
2022/08/31 07:09:03;;;;;;;;;;;;;;;27.94;34.34;99231.19;4469749;32;34371;-89
2022/08/31 07:11:34;;;;;;;;;;;;;;;28.71;34.20;99227.53;4460151;32;33659;-91
2022/08/31 07:14:02;;;;;;;;;;;;;;;28.53;33.67;99236.66;4467849;32;34282;-85
2022/08/31 07:16:30;;;;;;;;;;;;;;;28.20;33.85;99239.47;4450900;32;33968;-91
2022/08/31 07:18:59;;;;;;;;;;;;;;;28.07;34.43;99242.88;4453862;32;33409;-88
2022/08/31 07:21:27;;;;;;;;;;;;;;;28.59;33.65;99234.47;4467992;32;34130;-88
2022/08/31 07:23:56;;;;;;;;;;;;;;;28.03;35.04;99235.97;4467994;32;34249;-89
2022/08/31 07:26:26;;;;;;;;;;;;;;;29.46;33.17;99235.38;4467947;32;33993;-90
2022/08/31 07:28:54;;;;;;;;;;;;;;;29.00;33.04;99241.78;4453927;32;33250;-90
2022/08/31 07:31:25;;;;;;;;;;;;;;;29.91;32.06;99236.06;4452643;32;33863;-88
2022/08/31 07:33:54;;;;;;;;;;;;;;;30.49;31.81;99233.03;4453658;32;35069;-88
2022/08/31 07:36:23;;;;;;;;;;;;;;;29.85;31.41;99231.94;4473753;32;36081;-90
2022/08/31 07:42:20;;;;;;;;;;;;;;;29.07;33.22;99240.47;4483647;32;34680;-91
2022/08/31 07:44:28;;;;;;;;;;;;;;;29.93;31.82;99237.69;4450960;32;34343;-90
2022/08/31 07:46:56;;;;;;;;;;;;;;;30.57;30.15;99234.31;4467597;32;34512;-87
2022/08/31 07:49:25;;;;;;;;;;;;;;;30.54;30.24;99220.22;4476552;32;34061;-90
2022/08/31 07:51:54;;;;;;;;;;;;;;;30.97;30.19;99230.63;4483752;32;33603;-87
2022/08/31 07:54:26;;;;;;;;;;;;;;;30.13;30.72;99222.13;4483577;32;35140;-89
2022/08/31 07:57:02;;;;;;;;;;;;;;;30.86;30.59;99225.16;4483530;32;34316;-88
2022/08/31 07:59:31;;;;;;;;;;;;;;;30.94;30.41;99228.16;4483380;32;34148;-89
2022/08/31 08:02:00;;;;;;;;;;;;;;;30.30;31.17;99228.06;4469361;32;34002;-92
2022/08/31 08:04:29;;;;;;;;;;;;;;;30.93;30.43;99228.28;4483605;32;34107;-91
2022/08/31 08:06:57;;;;;;;;;;;;;;;31.11;30.31;99226.13;4483634;32;34547;-89
2022/08/31 08:09:27;;;;;;;;;;;;;;;30.74;30.18;99220.69;4483300;32;33676;-85
2022/08/31 08:11:56;;;;;;;;;;;;;;;29.55;31.66;99224.13;4483516;32;34145;-90
2022/08/31 08:14:27;;;;;;;;;;;;;;;30.26;30.27;99215.00;4468011;32;33712;-83
2022/08/31 08:16:57;;;;;;;;;;;;;;;30.80;29.89;99220.25;4471655;32;34608;-82
2022/08/31 08:19:26;;;;;;;;;;;;;;;30.85;30.04;99209.22;4475725;32;34444;-83
2022/08/31 08:21:54;;;;;;;;;;;;;;;31.29;29.67;99216.75;4474770;32;33712;-87
2022/08/31 08:24:22;;;;;;;;;;;;;;;30.69;29.42;99218.31;4450920;32;34187;-85
2022/08/31 08:26:53;;;;;;;;;;;;;;;30.30;29.56;99205.81;4458866;32;33635;-84
2022/08/31 08:29:22;;;;;;;;;;;;;;;30.58;29.23;99210.16;4467191;32;34527;-85
2022/08/31 08:31:53;;;;;;;;;;;;;;;30.97;27.73;99200.31;4467207;32;33915;-82
2022/08/31 08:34:23;;;;;;;;;;;;;;;30.73;28.89;99202.88;4467722;32;35457;-85
2022/08/31 08:36:59;;;;;;;;;;;;;;;30.90;29.20;99205.25;4467599;32;33914;-84
2022/08/31 08:39:26;;;;;;;;;;;;;;;30.82;28.91;99204.09;4453457;32;33452;-84
2022/08/31 08:41:54;;;;;;;;;;;;;;;30.75;29.38;99211.69;4466833;32;34154;-84
2022/08/31 08:44:22;;;;;;;;;;;;;;;31.05;28.25;99208.66;4457678;32;34236;-85
2022/08/31 08:46:55;;;;;;;;;;;;;;;30.76;28.22;99202.69;4443086;32;34374;-84
2022/08/31 08:49:27;;;;;;;;;;;;;;;29.97;29.33;99203.59;4437998;32;33073;-85
2022/08/31 08:51:55;;;;;;;;;;;;;;;30.74;28.13;99199.28;4460607;32;34166;-84
2022/08/31 08:54:45;;;;;;;;;;;;;;;30.79;28.13;99191.75;4438902;32;33903;-86
2022/08/31 08:57:13;;;;;;;;;;;;;;;29.94;28.96;99198.44;4452220;32;34555;-86
2022/08/31 08:59:45;;;;;;;;;;;;;;;30.65;29.77;99194.50;4451584;32;33779;-86
2022/08/31 09:02:18;;;;;;;;;;;;;;;30.99;28.15;99201.09;4452423;32;33457;-85
2022/08/31 09:04:58;;;;;;;;;;;;;;;30.99;28.36;99193.06;4450276;32;34236;-85
2022/08/31 09:07:43;;;;;;;;;;;;;;;30.82;29.02;99193.37;4438076;32;35388;-85
2022/08/31 09:10:17;;;;;;;;;;;;;;;30.53;28.73;99197.09;4451904;32;34483;-85
2022/08/31 09:12:51;;;;;;;;;;;;;;;29.92;29.28;99198.53;4439297;32;33996;-86
2022/08/31 09:15:20;;;;;;;;;;;;;;;30.05;29.14;99187.88;4441794;32;34187;-84
2022/08/31 09:18:12;;;;;;;;;;;;;;;30.16;28.26;99188.06;4451891;32;34158;-85
2022/08/31 09:20:40;;;;;;;;;;;;;;;31.03;28.37;99183.84;4435976;32;33257;-87
2022/08/31 09:23:07;;;;;;;;;;;;;;;31.46;28.02;99176.25;4458535;32;34188;-85
2022/08/31 09:25:46;;;;;;;;;;;;;;;31.19;27.72;99179.09;4467442;32;34384;-84
2022/08/31 09:28:15;;;;;;;;;;;;;;;30.91;28.40;99174.88;4452300;32;34439;-86
2022/08/31 09:30:43;;;;;;;;;;;;;;;31.12;27.36;99171.59;4467110;32;33707;-85
2022/08/31 09:33:16;;;;;;;;;;;;;;;30.69;28.00;99170.13;4460510;32;34101;-84
2022/08/31 09:35:44;;;;;;;;;;;;;;;30.86;27.91;99166.28;4451319;32;34300;-86
2022/08/31 09:38:24;;;;;;;;;;;;;;;30.27;27.80;99164.13;4456052;32;35279;-86
2022/08/31 09:40:51;;;;;;;;;;;;;;;30.48;28.59;99158.25;4451881;32;33439;-85
2022/08/31 09:43:23;;;;;;;;;;;;;;;30.50;28.05;99159.84;4459124;32;34241;-83
2022/08/31 09:45:54;;;;;;;;;;;;;;;31.23;28.26;99167.19;4461936;32;34150;-83
2022/08/31 09:48:38;;;;;;;;;;;;;;;30.61;28.19;99159.09;4455913;32;34171;-85
2022/08/31 09:51:06;;;;;;;;;;;;;;;30.83;27.55;99155.78;4469610;32;34513;-84
2022/08/31 09:56:27;;;;;;;;;;;;;;;30.82;27.44;99151.41;4459518;32;35079;-84
2022/08/31 09:59:00;;;;;;;;;;;;;;;31.15;27.71;99150.81;4467577;32;34102;-83
2022/08/31 10:01:43;;;;;;;;;;;;;;;31.63;26.09;99144.66;4456988;32;33428;-86
2022/08/31 10:04:16;;;;;;;;;;;;;;;31.30;26.94;99146.19;4462985;32;34206;-84
2022/08/31 10:07:06;;;;;;;;;;;;;;;31.72;26.21;99139.47;4454213;32;35064;-84
2022/08/31 10:09:36;;;;;;;;;;;;;;;31.85;26.06;99134.06;4468576;32;35312;-85
2022/08/31 10:12:05;;;;;;;;;;;;;;;30.62;27.34;99138.56;4454180;32;33608;-86
2022/08/31 10:14:55;;;;;;;;;;;;;;;30.76;28.54;99142.00;4453615;32;33911;-83
2022/08/31 10:17:27;;;;;;;;;;;;;;;31.82;25.95;99126.22;4460306;32;35159;-83
2022/08/31 10:20:07;;;;;;;;;;;;;;;31.20;27.77;99137.09;4449595;32;34423;-84
2022/08/31 10:22:40;;;;;;;;;;;;;;;31.92;27.09;99121.91;4455011;32;33902;-82
2022/08/31 10:25:16;;;;;;;;;;;;;;;32.21;26.20;99114.31;4449704;32;33874;-82
2022/08/31 10:27:47;;;;;;;;;;;;;;;32.12;26.02;99115.00;4446553;32;35216;-84
2022/08/31 10:30:24;;;;;;;;;;;;;;;32.15;25.71;99112.09;4456526;32;32808;-82
2022/08/31 10:32:56;;;;;;;;;;;;;;;31.71;25.92;99113.66;4464289;32;33233;-85
2022/08/31 10:35:44;;;;;;;;;;;;;;;32.45;24.47;99111.56;4451664;32;34206;-84
2022/08/31 10:38:14;;;;;;;;;;;;;;;31.73;26.42;99102.81;4451527;32;35075;-84
2022/08/31 10:40:49;;;;;;;;;;;;;;;32.17;25.45;99106.63;4457884;32;34037;-82
2022/08/31 10:43:20;;;;;;;;;;;;;;;31.36;25.67;99105.53;4465913;32;34543;-84
2022/08/31 10:45:50;;;;;;;;;;;;;;;32.03;25.55;99096.13;4454434;32;35104;-82
2022/08/31 10:48:23;;;;;;;;;;;;;;;31.69;25.47;99091.47;4438371;32;35356;-84
2022/08/31 10:50:50;;;;;;;;;;;;;;;31.81;26.47;99095.03;4460591;32;35249;-85
2022/08/31 10:53:21;;;;;;;;;;;;;;;31.61;27.16;99095.69;4467270;32;34420;-85
2022/08/31 10:55:54;;;;;;;;;;;;;;;31.95;25.96;99094.87;4464657;32;34256;-85
2022/08/31 10:58:21;;;;;;;;;;;;;;;32.12;26.31;99095.38;4448971;32;34539;-84
2022/08/31 11:00:50;;;;;;;;;;;;;;;32.19;26.10;99085.91;4463431;32;35246;-84
2022/08/31 11:03:36;;;;;;;;;;;;;;;31.42;25.93;99093.53;4446079;32;34186;-84
2022/08/31 11:06:24;;;;;;;;;;;;;;;31.72;26.38;99091.22;4455293;32;34038;-83
2022/08/31 11:08:57;;;;;;;;;;;;;;;31.97;25.92;99087.59;4452984;32;34392;-85
2022/08/31 11:11:56;;;;;;;;;;;;;;;31.65;25.83;99091.81;4445203;32;34638;-85
2022/08/31 11:14:32;;;;;;;;;;;;;;;31.89;27.18;99095.34;4453397;32;34281;-84
2022/08/31 11:17:08;;;;;;;;;;;;;;;32.46;25.82;99083.75;4452783;32;34864;-84
2022/08/31 11:19:55;;;;;;;;;;;;;;;32.60;25.25;99085.38;4464794;32;34493;-86
2022/08/31 11:22:27;;;;;;;;;;;;;;;32.75;26.62;99074.38;4450884;32;34920;-83
2022/08/31 11:24:59;;;;;;;;;;;;;;;32.74;24.89;99076.22;4455229;32;33036;-84
2022/08/31 11:27:32;;;;;;;;;;;;;;;33.28;25.63;99064.66;4453625;32;34688;-86
2022/08/31 11:30:06;;;;;;;;;;;;;;;33.47;24.14;99063.16;4451203;32;34525;-89
2022/08/31 11:32:46;;;;;;;;;;;;;;;33.32;24.01;99066.09;4447102;32;33790;-89
2022/08/31 11:35:14;;;;;;;;;;;;;;;32.76;24.30;99060.81;4438868;32;33562;-87
2022/08/31 11:37:49;;;;;;;;;;;;;;;32.70;24.54;99061.34;4451198;32;33361;-88
2022/08/31 11:40:44;;;;;;;;;;;;;;;32.60;24.39;99060.34;4464595;32;34065;-87
2022/08/31 11:43:12;;;;;;;;;;;;;;;32.86;24.55;99055.56;4463367;32;34393;-87
2022/08/31 11:45:40;;;;;;;;;;;;;;;32.32;25.51;99059.84;4467237;32;33817;-81
2022/08/31 11:48:28;;;;;;;;;;;;;;;32.93;24.61;99052.28;4466499;32;34062;-83
2022/08/31 11:51:02;;;;;;;;;;;;;;;33.03;24.17;99051.53;4455185;32;33915;-87
2022/08/31 11:53:30;;;;;;;;;;;;;;;33.11;25.13;99057.13;4461990;32;34059;-89
2022/08/31 11:55:59;;;;;;;;;;;;;;;33.37;24.19;99050.44;4462076;32;33649;-87
2022/08/31 11:58:30;;;;;;;;;;;;;;;33.42;24.67;99048.25;4464562;32;34702;-88
2022/08/31 12:00:58;;;;;;;;;;;;;;;33.78;23.67;99043.44;4441431;32;33668;-85
2022/08/31 12:03:37;;;;;;;;;;;;;;;33.16;23.85;99049.56;4457732;32;34610;-88
2022/08/31 12:06:09;;;;;;;;;;;;;;;32.62;24.60;99050.38;4464937;32;33612;-88
2022/08/31 12:08:51;;;;;;;;;;;;;;;32.44;24.59;99040.09;4445699;32;34126;-88
2022/08/31 12:11:34;;;;;;;;;;;;;;;31.97;25.40;99044.69;4461907;32;34258;-85
2022/08/31 12:14:07;;;;;;;;;;;;;;;32.20;25.43;99050.94;4467523;32;34323;-88
2022/08/31 12:16:37;;;;;;;;;;;;;;;32.34;24.61;99044.47;4447517;32;33140;-86
2022/08/31 12:19:05;;;;;;;;;;;;;;;32.99;24.72;99040.19;4459476;32;35101;-87
2022/08/31 12:24:51;;;;;;;;;;;;;;;32.92;24.73;99039.81;4460682;32;35264;-87
2022/08/31 12:27:25;;;;;;;;;;;;;;;33.38;24.57;99036.06;4444689;32;33663;-88
2022/08/31 12:30:06;;;;;;;;;;;;;;;33.74;24.92;99031.25;4447535;32;34252;-89
2022/08/31 12:32:37;;;;;;;;;;;;;;;33.81;24.19;99032.44;4440522;32;33744;-88
2022/08/31 12:35:04;;;;;;;;;;;;;;;33.78;23.51;99030.00;4451803;32;34736;-82
2022/08/31 12:37:32;;;;;;;;;;;;;;;33.84;24.06;99025.97;4461893;32;33943;-84
2022/08/31 12:40:07;;;;;;;;;;;;;;;33.67;23.61;99030.06;4460906;32;34788;-85
2022/08/31 12:42:37;;;;;;;;;;;;;;;33.95;23.45;99025.03;4466591;32;34963;-84
2022/08/31 12:45:06;;;;;;;;;;;;;;;33.79;23.57;99026.34;4437161;32;35162;-84
2022/08/31 12:47:36;;;;;;;;;;;;;;;33.60;23.54;99020.81;4461929;32;33242;-83
2022/08/31 12:50:13;;;;;;;;;;;;;;;33.51;23.90;99014.38;4458269;32;34379;-85
2022/08/31 12:52:47;;;;;;;;;;;;;;;33.61;23.26;99009.09;4442179;32;35087;-86
2022/08/31 12:55:14;;;;;;;;;;;;;;;33.80;23.42;99005.69;4453983;32;33939;-84
2022/08/31 12:57:41;;;;;;;;;;;;;;;34.27;22.86;99006.97;4459383;32;33625;-85
2022/08/31 13:00:14;;;;;;;;;;;;;;;33.69;24.52;99011.97;4451914;32;35032;-83
2022/08/31 13:02:43;;;;;;;;;;;;;;;32.74;24.56;99009.09;4452733;32;34494;-87
2022/08/31 13:05:15;;;;;;;;;;;;;;;33.48;23.64;99003.03;4450353;32;34300;-86
2022/08/31 13:07:43;;;;;;;;;;;;;;;33.68;24.49;99004.91;4455019;32;33613;-84
2022/08/31 13:10:11;;;;;;;;;;;;;;;33.67;24.28;99004.03;4479212;32;34144;-86
2022/08/31 13:12:39;;;;;;;;;;;;;;;33.35;23.99;99005.91;4464609;32;34753;-85
2022/08/31 13:15:19;;;;;;;;;;;;;;;33.71;24.34;99009.16;4452288;32;35090;-84
2022/08/31 13:17:46;;;;;;;;;;;;;;;33.95;22.70;99000.84;4466411;32;33380;-83